CYBX

Lourdes de Blanc Sablon Airport

ICAO Code CYBX
IATA Code YBX
Name Lourdes de Blanc Sablon Airport
Location Lourdes-De-Blanc-Sablon, Quebec, CA
Elevation 122 Feet / 37.2 Meters
Latitude 51.44194444
Longitude -57.18611111
METAR CYBX 080700Z 06009KT 15SM FEW007 BKN036 03/02 A3015 RMK ST2SC3 SLP212
Extra information Display Charts and CFS
Display NOTAMS
Runway Length Width Surface Elevation
05 4500 ft 150 ft ASP 79 ft
23 4500 ft 150 ft ASP 122 ft